sensor_id;sensor_type;location;lat;lon;timestamp;pressure;altitude;pressure_sealevel;temperature;humidity
62011;BME280;47967;51.756;10.174;2023-05-20T04:04:24;100468.53;;;11.18;76.71
62011;BME280;47967;51.756;10.174;2023-05-20T04:08:26;100465.13;;;11.61;75.28
62011;BME280;47967;51.756;10.174;2023-05-20T04:12:29;100470.59;;;11.83;74.02
62011;BME280;47967;51.756;10.174;2023-05-20T04:16:32;100475.69;;;11.93;73.66
62011;BME280;47967;51.756;10.174;2023-05-20T04:20:36;100475.78;;;11.99;73.66
62011;BME280;47967;51.756;10.174;2023-05-20T04:24:42;100478.03;;;12.17;73.43
62011;BME280;47967;51.756;10.174;2023-05-20T04:28:44;100472.91;;;12.51;72.00
62011;BME280;47967;51.756;10.174;2023-05-20T04:32:49;100471.91;;;12.80;70.82
62011;BME280;47967;51.756;10.174;2023-05-20T04:36:53;100477.31;;;13.09;69.69
62011;BME280;47967;51.756;10.174;2023-05-20T04:40:56;100477.75;;;13.12;68.96
62011;BME280;47967;51.756;10.174;2023-05-20T04:44:59;100479.50;;;13.27;68.16
62011;BME280;47967;51.756;10.174;2023-05-20T04:49:03;100475.00;;;13.41;67.92
62011;BME280;47967;51.756;10.174;2023-05-20T04:53:09;100480.69;;;13.59;67.51
62011;BME280;47967;51.756;10.174;2023-05-20T04:57:11;100480.59;;;13.81;66.43
62011;BME280;47967;51.756;10.174;2023-05-20T05:01:14;100485.84;;;13.89;66.10
62011;BME280;47967;51.756;10.174;2023-05-20T05:05:17;100488.19;;;14.13;65.86
62011;BME280;47967;51.756;10.174;2023-05-20T05:09:21;100474.22;;;14.36;65.21
62011;BME280;47967;51.756;10.174;2023-05-20T05:13:23;100471.09;;;14.32;64.69
62011;BME280;47967;51.756;10.174;2023-05-20T05:17:27;100465.03;;;14.50;64.53
62011;BME280;47967;51.756;10.174;2023-05-20T05:21:31;100467.13;;;14.62;64.23
62011;BME280;47967;51.756;10.174;2023-05-20T05:25:35;100463.16;;;14.57;64.27
62011;BME280;47967;51.756;10.174;2023-05-20T05:29:38;100450.03;;;14.75;63.93
62011;BME280;47967;51.756;10.174;2023-05-20T05:33:40;100447.69;;;15.05;62.86
62011;BME280;47967;51.756;10.174;2023-05-20T05:37:43;100454.88;;;15.38;62.28
62011;BME280;47967;51.756;10.174;2023-05-20T05:41:47;100458.88;;;15.29;62.28
62011;BME280;47967;51.756;10.174;2023-05-20T05:45:50;100467.41;;;15.46;61.73
62011;BME280;47967;51.756;10.174;2023-05-20T05:49:52;100448.31;;;15.52;61.54
62011;BME280;47967;51.756;10.174;2023-05-20T05:53:55;100458.88;;;15.81;60.68
62011;BME280;47967;51.756;10.174;2023-05-20T05:57:59;100459.56;;;16.08;59.98
62011;BME280;47967;51.756;10.174;2023-05-20T06:02:03;100464.50;;;15.79;60.13
62011;BME280;47967;51.756;10.174;2023-05-20T06:06:06;100475.66;;;15.71;60.12
62011;BME280;47967;51.756;10.174;2023-05-20T06:10:09;100470.44;;;15.69;60.30
62011;BME280;47967;51.756;10.174;2023-05-20T06:14:13;100467.22;;;15.79;60.61
62011;BME280;47967;51.756;10.174;2023-05-20T06:18:16;100458.03;;;15.80;60.23
62011;BME280;47967;51.756;10.174;2023-05-20T06:22:19;100453.69;;;15.73;60.58
62011;BME280;47967;51.756;10.174;2023-05-20T06:26:22;100441.94;;;15.86;60.67
62011;BME280;47967;51.756;10.174;2023-05-20T06:30:26;100460.22;;;16.04;60.28
62011;BME280;47967;51.756;10.174;2023-05-20T06:34:29;100460.59;;;16.14;59.90
62011;BME280;47967;51.756;10.174;2023-05-20T06:38:32;100455.59;;;16.36;59.81
62011;BME280;47967;51.756;10.174;2023-05-20T06:42:35;100465.59;;;16.17;59.75
62011;BME280;47967;51.756;10.174;2023-05-20T06:46:40;100466.66;;;16.41;59.42
62011;BME280;47967;51.756;10.174;2023-05-20T06:50:46;100469.72;;;17.21;57.90
62011;BME280;47967;51.756;10.174;2023-05-20T06:54:49;100471.22;;;17.72;55.82
62011;BME280;47967;51.756;10.174;2023-05-20T06:58:51;100468.06;;;17.38;56.15
62011;BME280;47967;51.756;10.174;2023-05-20T07:02:55;100475.38;;;17.75;56.23
62011;BME280;47967;51.756;10.174;2023-05-20T07:06:58;100469.59;;;17.53;55.81
62011;BME280;47967;51.756;10.174;2023-05-20T07:11:01;100469.47;;;17.04;56.69
62011;BME280;47967;51.756;10.174;2023-05-20T07:15:05;100461.22;;;17.48;55.89
62011;BME280;47967;51.756;10.174;2023-05-20T07:19:09;100459.28;;;17.36;55.69
62011;BME280;47967;51.756;10.174;2023-05-20T07:23:12;100443.34;;;16.96;56.49
62011;BME280;47967;51.756;10.174;2023-05-20T07:27:18;100440.06;;;17.12;56.13
62011;BME280;47967;51.756;10.174;2023-05-20T07:31:21;100427.91;;;17.46;54.91
62011;BME280;47967;51.756;10.174;2023-05-20T07:35:25;100427.16;;;17.38;54.92
62011;BME280;47967;51.756;10.174;2023-05-20T07:39:30;100430.63;;;17.46;54.60
62011;BME280;47967;51.756;10.174;2023-05-20T07:43:32;100428.41;;;17.54;54.79
62011;BME280;47967;51.756;10.174;2023-05-20T07:47:37;100421.69;;;18.42;53.06
62011;BME280;47967;51.756;10.174;2023-05-20T07:51:41;100414.19;;;18.37;52.86
62011;BME280;47967;51.756;10.174;2023-05-20T07:55:45;100402.91;;;18.21;52.56
62011;BME280;47967;51.756;10.174;2023-05-20T07:59:48;100415.03;;;18.37;52.94
62011;BME280;47967;51.756;10.174;2023-05-20T08:03:51;100406.00;;;19.08;51.84
62011;BME280;47967;51.756;10.174;2023-05-20T08:07:57;100413.06;;;18.92;52.02
62011;BME280;47967;51.756;10.174;2023-05-20T08:12:02;100401.72;;;19.12;51.85
62011;BME280;47967;51.756;10.174;2023-05-20T08:16:05;100399.72;;;18.60;51.73
62011;BME280;47967;51.756;10.174;2023-05-20T08:20:14;100395.78;;;18.92;51.73
62011;BME280;47967;51.756;10.174;2023-05-20T08:24:19;100390.94;;;18.94;51.84
62011;BME280;47967;51.756;10.174;2023-05-20T08:28:22;100399.66;;;19.19;50.40
62011;BME280;47967;51.756;10.174;2023-05-20T08:32:24;100393.28;;;19.02;49.67
62011;BME280;47967;51.756;10.174;2023-05-20T08:36:28;100386.88;;;19.08;49.52
62011;BME280;47967;51.756;10.174;2023-05-20T08:40:33;100378.75;;;20.17;48.48
62011;BME280;47967;51.756;10.174;2023-05-20T08:44:36;100381.75;;;19.41;49.65
62011;BME280;47967;51.756;10.174;2023-05-20T08:48:39;100376.28;;;19.41;49.46
62011;BME280;47967;51.756;10.174;2023-05-20T08:52:43;100382.00;;;19.39;49.10
62011;BME280;47967;51.756;10.174;2023-05-20T08:56:47;100384.84;;;18.92;51.07
62011;BME280;47967;51.756;10.174;2023-05-20T09:00:50;100389.16;;;18.40;51.74
62011;BME280;47967;51.756;10.174;2023-05-20T09:04:54;100386.41;;;18.40;51.75
62011;BME280;47967;51.756;10.174;2023-05-20T09:08:56;100382.25;;;18.61;51.60
62011;BME280;47967;51.756;10.174;2023-05-20T09:13:01;100372.50;;;18.18;52.72
62011;BME280;47967;51.756;10.174;2023-05-20T09:17:04;100381.19;;;18.27;53.20
62011;BME280;47967;51.756;10.174;2023-05-20T09:21:08;100377.03;;;18.60;52.92
62011;BME280;47967;51.756;10.174;2023-05-20T09:25:11;100383.19;;;19.02;52.19
62011;BME280;47967;51.756;10.174;2023-05-20T09:29:15;100381.50;;;19.13;51.96
62011;BME280;47967;51.756;10.174;2023-05-20T09:33:20;100384.59;;;19.05;51.80
62011;BME280;47967;51.756;10.174;2023-05-20T09:37:23;100393.66;;;19.06;52.07
62011;BME280;47967;51.756;10.174;2023-05-20T09:41:32;100410.78;;;18.65;53.48
62011;BME280;47967;51.756;10.174;2023-05-20T09:45:37;100404.00;;;18.92;53.05
62011;BME280;47967;51.756;10.174;2023-05-20T09:49:40;100405.06;;;19.02;52.19
62011;BME280;47967;51.756;10.174;2023-05-20T09:53:43;100398.44;;;18.63;53.77
62011;BME280;47967;51.756;10.174;2023-05-20T09:57:46;100396.75;;;18.97;53.40
62011;BME280;47967;51.756;10.174;2023-05-20T10:01:50;100386.69;;;19.84;52.37
62011;BME280;47967;51.756;10.174;2023-05-20T10:06:03;100384.59;;;19.46;51.17
62011;BME280;47967;51.756;10.174;2023-05-20T10:10:21;100387.41;;;19.22;51.81
62011;BME280;47967;51.756;10.174;2023-05-20T10:14:37;100387.41;;;19.63;51.21
62011;BME280;47967;51.756;10.174;2023-05-20T10:18:54;100397.72;;;19.32;51.83
62011;BME280;47967;51.756;10.174;2023-05-20T10:22:58;100387.00;;;19.42;51.49
62011;BME280;47967;51.756;10.174;2023-05-20T10:27:03;100377.00;;;19.07;52.24
62011;BME280;47967;51.756;10.174;2023-05-20T10:31:14;100380.44;;;18.91;53.35
62011;BME280;47967;51.756;10.174;2023-05-20T10:35:21;100366.75;;;18.91;52.71
62011;BME280;47967;51.756;10.174;2023-05-20T10:39:27;100358.94;;;19.35;51.93
62011;BME280;47967;51.756;10.174;2023-05-20T10:43:30;100362.75;;;18.69;52.96
62011;BME280;47967;51.756;10.174;2023-05-20T10:47:33;100357.41;;;19.27;51.86
62011;BME280;47967;51.756;10.174;2023-05-20T10:51:38;100358.59;;;18.79;52.95
62011;BME280;47967;51.756;10.174;2023-05-20T10:55:47;100363.94;;;18.73;53.68
62011;BME280;47967;51.756;10.174;2023-05-20T10:59:52;100344.59;;;18.51;53.98
62011;BME280;47967;51.756;10.174;2023-05-20T11:03:56;100348.22;;;18.81;53.70
62011;BME280;47967;51.756;10.174;2023-05-20T11:08:01;100350.19;;;18.45;54.38
62011;BME280;47967;51.756;10.174;2023-05-20T11:12:11;100346.94;;;18.00;55.17
62011;BME280;47967;51.756;10.174;2023-05-20T11:16:16;100334.97;;;18.25;55.32
62011;BME280;47967;51.756;10.174;2023-05-20T11:20:18;100333.69;;;18.39;54.99
62011;BME280;47967;51.756;10.174;2023-05-20T11:24:25;100325.13;;;18.36;54.52
62011;BME280;47967;51.756;10.174;2023-05-20T11:28:29;100329.69;;;17.76;56.18
62011;BME280;47967;51.756;10.174;2023-05-20T11:32:33;100327.59;;;18.02;55.98
62011;BME280;47967;51.756;10.174;2023-05-20T11:36:39;100319.75;;;18.17;55.80
62011;BME280;47967;51.756;10.174;2023-05-20T11:40:44;100320.03;;;18.28;55.38
62011;BME280;47967;51.756;10.174;2023-05-20T11:44:52;100320.31;;;18.79;54.49
62011;BME280;47967;51.756;10.174;2023-05-20T11:48:55;100314.72;;;18.97;53.48
62011;BME280;47967;51.756;10.174;2023-05-20T11:52:58;100318.72;;;19.64;53.24
62011;BME280;47967;51.756;10.174;2023-05-20T11:57:02;100306.94;;;19.98;51.69
62011;BME280;47967;51.756;10.174;2023-05-20T12:01:07;100297.50;;;20.06;51.68
62011;BME280;47967;51.756;10.174;2023-05-20T12:05:22;100289.59;;;20.26;51.60
62011;BME280;47967;51.756;10.174;2023-05-20T12:09:24;100282.50;;;20.92;50.31
62011;BME280;47967;51.756;10.174;2023-05-20T12:13:28;100279.38;;;21.05;49.73
62011;BME280;47967;51.756;10.174;2023-05-20T12:17:43;100276.31;;;20.57;50.29
62011;BME280;47967;51.756;10.174;2023-05-20T12:21:46;100266.41;;;20.34;51.73
62011;BME280;47967;51.756;10.174;2023-05-20T12:25:49;100279.97;;;19.73;52.50
62011;BME280;47967;51.756;10.174;2023-05-20T12:29:53;100263.44;;;19.67;52.85
62011;BME280;47967;51.756;10.174;2023-05-20T12:33:55;100285.56;;;19.32;53.44
62011;BME280;47967;51.756;10.174;2023-05-20T12:37:58;100253.09;;;19.24;54.43
62011;BME280;47967;51.756;10.174;2023-05-20T12:42:01;100270.75;;;19.79;52.95
62011;BME280;47967;51.756;10.174;2023-05-20T12:46:05;100270.06;;;19.83;53.32
62011;BME280;47967;51.756;10.174;2023-05-20T12:50:08;100272.19;;;20.15;52.50
62011;BME280;47967;51.756;10.174;2023-05-20T12:54:11;100273.38;;;20.25;52.06
62011;BME280;47967;51.756;10.174;2023-05-20T12:58:13;100274.41;;;20.19;52.02
62011;BME280;47967;51.756;10.174;2023-05-20T13:02:18;100272.31;;;20.26;51.96
62011;BME280;47967;51.756;10.174;2023-05-20T13:06:20;100272.84;;;20.06;52.32
62011;BME280;47967;51.756;10.174;2023-05-20T13:10:23;100262.88;;;19.65;52.88
62011;BME280;47967;51.756;10.174;2023-05-20T13:14:25;100260.38;;;19.81;53.28
62011;BME280;47967;51.756;10.174;2023-05-20T13:18:29;100249.97;;;20.34;52.52
62011;BME280;47967;51.756;10.174;2023-05-20T13:22:32;100253.34;;;19.68;53.48
62011;BME280;47967;51.756;10.174;2023-05-20T13:26:35;100235.50;;;19.48;54.00
62011;BME280;47967;51.756;10.174;2023-05-20T13:30:37;100245.19;;;19.73;53.60
62011;BME280;47967;51.756;10.174;2023-05-20T13:34:41;100236.38;;;20.22;52.73
62011;BME280;47967;51.756;10.174;2023-05-20T13:38:44;100233.31;;;20.19;52.80
62011;BME280;47967;51.756;10.174;2023-05-20T13:42:47;100239.50;;;19.92;52.71
62011;BME280;47967;51.756;10.174;2023-05-20T13:46:49;100236.38;;;19.20;55.04
62011;BME280;47967;51.756;10.174;2023-05-20T13:50:53;100233.78;;;19.13;55.22
62011;BME280;47967;51.756;10.174;2023-05-20T13:54:56;100237.81;;;19.74;54.82
62011;BME280;47967;51.756;10.174;2023-05-20T13:58:58;100241.81;;;19.03;55.63
62011;BME280;47967;51.756;10.174;2023-05-20T14:03:01;100245.00;;;19.29;55.18
62011;BME280;47967;51.756;10.174;2023-05-20T14:07:06;100240.88;;;18.97;55.93
62011;BME280;47967;51.756;10.174;2023-05-20T14:11:10;100237.69;;;18.88;55.91
62011;BME280;47967;51.756;10.174;2023-05-20T14:15:13;100225.28;;;18.98;55.74
62011;BME280;47967;51.756;10.174;2023-05-20T14:19:15;100215.94;;;19.40;54.84
62011;BME280;47967;51.756;10.174;2023-05-20T14:23:19;100220.22;;;18.90;56.05
62011;BME280;47967;51.756;10.174;2023-05-20T14:27:22;100224.38;;;18.80;56.76
62011;BME280;47967;51.756;10.174;2023-05-20T14:31:25;100220.53;;;18.64;56.98
62011;BME280;47967;51.756;10.174;2023-05-20T14:35:28;100216.69;;;18.24;57.98
62011;BME280;47967;51.756;10.174;2023-05-20T14:39:32;100201.34;;;18.35;58.23
62011;BME280;47967;51.756;10.174;2023-05-20T14:43:35;100204.59;;;18.20;58.33
62011;BME280;47967;51.756;10.174;2023-05-20T14:47:40;100203.75;;;18.20;58.53
62011;BME280;47967;51.756;10.174;2023-05-20T14:51:43;100210.53;;;18.17;58.52
62011;BME280;47967;51.756;10.174;2023-05-20T14:55:47;100189.72;;;18.28;58.45
62011;BME280;47967;51.756;10.174;2023-05-20T14:59:50;100197.63;;;18.53;57.94
62011;BME280;47967;51.756;10.174;2023-05-20T15:03:52;100189.53;;;18.87;57.25
62011;BME280;47967;51.756;10.174;2023-05-20T15:07:55;100190.41;;;19.05;57.05
62011;BME280;47967;51.756;10.174;2023-05-20T15:11:59;100179.59;;;18.81;57.11
62011;BME280;47967;51.756;10.174;2023-05-20T15:16:03;100172.34;;;19.04;57.31
62011;BME280;47967;51.756;10.174;2023-05-20T15:20:07;100160.59;;;19.03;56.64
62011;BME280;47967;51.756;10.174;2023-05-20T15:24:10;100165.19;;;20.50;54.03
62011;BME280;47967;51.756;10.174;2023-05-20T15:28:14;100157.97;;;20.66;53.43
62011;BME280;47967;51.756;10.174;2023-05-20T15:32:19;100160.75;;;21.25;52.21
62011;BME280;47967;51.756;10.174;2023-05-20T15:36:22;100155.75;;;21.93;50.90
62011;BME280;47967;51.756;10.174;2023-05-20T15:40:25;100152.94;;;21.44;50.71
62011;BME280;47967;51.756;10.174;2023-05-20T15:44:29;100151.22;;;21.66;50.67
62011;BME280;47967;51.756;10.174;2023-05-20T15:48:33;100140.25;;;21.38;50.89
62011;BME280;47967;51.756;10.174;2023-05-20T15:52:36;100135.84;;;21.32;51.15
62011;BME280;47967;51.756;10.174;2023-05-20T15:56:39;100130.03;;;21.28;51.36
62011;BME280;47967;51.756;10.174;2023-05-20T16:00:42;100128.34;;;22.03;49.89
62011;BME280;47967;51.756;10.174;2023-05-20T16:04:45;100121.59;;;22.36;49.08
62011;BME280;47967;51.756;10.174;2023-05-20T16:08:48;100112.06;;;22.60;48.49
62011;BME280;47967;51.756;10.174;2023-05-20T16:12:51;100118.28;;;22.24;48.74
62011;BME280;47967;51.756;10.174;2023-05-20T16:16:55;100107.44;;;21.97;50.00
62011;BME280;47967;51.756;10.174;2023-05-20T16:20:57;100097.91;;;21.62;50.12
62011;BME280;47967;51.756;10.174;2023-05-20T16:25:00;100097.81;;;22.04;50.28
62011;BME280;47967;51.756;10.174;2023-05-20T16:29:03;100107.38;;;22.60;48.99
62011;BME280;47967;51.756;10.174;2023-05-20T16:33:07;100091.88;;;22.23;49.38
62011;BME280;47967;51.756;10.174;2023-05-20T16:37:10;100094.84;;;22.11;49.51
62011;BME280;47967;51.756;10.174;2023-05-20T16:41:12;100081.28;;;21.84;49.76
62011;BME280;47967;51.756;10.174;2023-05-20T16:45:16;100089.81;;;21.87;50.48
62011;BME280;47967;51.756;10.174;2023-05-20T16:49:20;100090.03;;;22.39;49.15
62011;BME280;47967;51.756;10.174;2023-05-20T16:53:23;100093.88;;;22.38;49.19
62011;BME280;47967;51.756;10.174;2023-05-20T16:57:26;100087.47;;;22.17;49.78
62011;BME280;47967;51.756;10.174;2023-05-20T17:01:28;100092.31;;;21.99;49.59
62011;BME280;47967;51.756;10.174;2023-05-20T17:05:32;100105.13;;;21.78;50.45
62011;BME280;47967;51.756;10.174;2023-05-20T17:09:35;100100.50;;;21.84;50.75
62011;BME280;47967;51.756;10.174;2023-05-20T17:13:38;100099.56;;;22.31;49.48
62011;BME280;47967;51.756;10.174;2023-05-20T17:17:41;100095.75;;;21.69;50.81
62011;BME280;47967;51.756;10.174;2023-05-20T17:21:45;100099.19;;;21.97;50.27
62011;BME280;47967;51.756;10.174;2023-05-20T17:25:48;100102.41;;;21.83;50.61
62011;BME280;47967;51.756;10.174;2023-05-20T17:29:50;100096.28;;;21.61;51.11
62011;BME280;47967;51.756;10.174;2023-05-20T17:33:53;100092.84;;;21.48;51.59
62011;BME280;47967;51.756;10.174;2023-05-20T17:37:57;100097.72;;;21.41;51.98
62011;BME280;47967;51.756;10.174;2023-05-20T17:42:01;100086.72;;;21.36;52.06
62011;BME280;47967;51.756;10.174;2023-05-20T17:46:03;100086.38;;;21.22;52.77
62011;BME280;47967;51.756;10.174;2023-05-20T17:50:07;100107.44;;;21.16;52.85
62011;BME280;47967;51.756;10.174;2023-05-20T17:54:12;100093.38;;;20.75;53.55
62011;BME280;47967;51.756;10.174;2023-05-20T17:58:15;100101.75;;;20.63;54.05
62011;BME280;47967;51.756;10.174;2023-05-20T18:02:18;100102.56;;;20.63;54.17
62011;BME280;47967;51.756;10.174;2023-05-20T18:06:20;100105.97;;;20.48;54.63
62011;BME280;47967;51.756;10.174;2023-05-20T18:10:27;100099.75;;;19.87;56.25
62011;BME280;47967;51.756;10.174;2023-05-20T18:14:30;100090.63;;;19.81;56.98
62011;BME280;47967;51.756;10.174;2023-05-20T18:18:33;100103.50;;;19.80;57.27
62011;BME280;47967;51.756;10.174;2023-05-20T18:22:35;100107.94;;;19.64;57.72
62011;BME280;47967;51.756;10.174;2023-05-20T18:26:42;100105.28;;;19.52;58.35
62011;BME280;47967;51.756;10.174;2023-05-20T18:30:44;100116.09;;;19.42;58.33
62011;BME280;47967;51.756;10.174;2023-05-20T18:34:47;100102.44;;;19.25;58.54
62011;BME280;47967;51.756;10.174;2023-05-20T18:38:49;100108.06;;;19.18;58.72
62011;BME280;47967;51.756;10.174;2023-05-20T18:42:53;100112.09;;;18.99;59.49
62011;BME280;47967;51.756;10.174;2023-05-20T18:46:56;100103.81;;;18.94;59.92
62011;BME280;47967;51.756;10.174;2023-05-20T18:50:59;100092.38;;;18.80;59.97
62011;BME280;47967;51.756;10.174;2023-05-20T18:55:01;100091.50;;;18.79;60.27
62011;BME280;47967;51.756;10.174;2023-05-20T18:59:05;100096.72;;;18.81;60.25
62011;BME280;47967;51.756;10.174;2023-05-20T19:03:08;100096.69;;;18.64;60.68
62011;BME280;47967;51.756;10.174;2023-05-20T19:07:11;100099.91;;;18.44;61.23
62011;BME280;47967;51.756;10.174;2023-05-20T19:11:14;100100.31;;;18.23;61.56
62011;BME280;47967;51.756;10.174;2023-05-20T19:15:18;100090.97;;;18.19;62.22
62011;BME280;47967;51.756;10.174;2023-05-20T19:19:21;100098.59;;;18.05;62.51
62011;BME280;47967;51.756;10.174;2023-05-20T19:23:23;100098.25;;;18.02;62.50
62011;BME280;47967;51.756;10.174;2023-05-20T19:27:26;100097.75;;;17.93;62.88
62011;BME280;47967;51.756;10.174;2023-05-20T19:31:30;100089.31;;;18.06;62.46
62011;BME280;47967;51.756;10.174;2023-05-20T19:35:33;100099.06;;;18.02;62.68
62011;BME280;47967;51.756;10.174;2023-05-20T19:39:36;100095.19;;;17.98;62.82
62011;BME280;47967;51.756;10.174;2023-05-20T19:43:39;100104.44;;;17.85;63.26
62011;BME280;47967;51.756;10.174;2023-05-20T19:47:43;100101.09;;;17.83;63.08
62011;BME280;47967;51.756;10.174;2023-05-20T19:51:45;100101.00;;;17.66;63.54
62011;BME280;47967;51.756;10.174;2023-05-20T19:55:48;100100.78;;;17.44;64.38
62011;BME280;47967;51.756;10.174;2023-05-20T19:59:51;100098.41;;;17.48;64.36
62011;BME280;47967;51.756;10.174;2023-05-20T20:03:55;100096.50;;;17.60;63.97
62011;BME280;47967;51.756;10.174;2023-05-20T20:07:58;100097.81;;;17.34;64.64
62011;BME280;47967;51.756;10.174;2023-05-20T20:12:01;100083.09;;;17.47;64.51
62011;BME280;47967;51.756;10.174;2023-05-20T20:16:04;100097.00;;;17.45;64.50
62011;BME280;47967;51.756;10.174;2023-05-20T20:20:11;100092.38;;;17.46;64.53
62011;BME280;47967;51.756;10.174;2023-05-20T20:24:14;100089.53;;;17.28;65.12
62011;BME280;47967;51.756;10.174;2023-05-20T20:28:17;100089.41;;;17.35;65.01
62011;BME280;47967;51.756;10.174;2023-05-20T20:32:20;100091.28;;;17.23;65.29
62011;BME280;47967;51.756;10.174;2023-05-20T20:36:25;100085.97;;;17.28;65.39
62011;BME280;47967;51.756;10.174;2023-05-20T20:40:32;100081.94;;;17.19;65.65
62011;BME280;47967;51.756;10.174;2023-05-20T20:44:34;100085.25;;;17.21;65.56
62011;BME280;47967;51.756;10.174;2023-05-20T20:48:37;100079.34;;;17.36;65.07
62011;BME280;47967;51.756;10.174;2023-05-20T20:52:41;100085.03;;;17.22;65.63
62011;BME280;47967;51.756;10.174;2023-05-20T20:56:45;100077.91;;;17.21;65.67
62011;BME280;47967;51.756;10.174;2023-05-20T21:09:50;100069.19;;;16.89;66.90
62011;BME280;47967;51.756;10.174;2023-05-20T21:13:55;100068.22;;;16.71;67.58
62011;BME280;47967;51.756;10.174;2023-05-20T21:17:58;100060.25;;;16.70;67.63
62011;BME280;47967;51.756;10.174;2023-05-20T21:22:00;100054.78;;;16.58;68.33
62011;BME280;47967;51.756;10.174;2023-05-20T21:26:04;100048.28;;;16.71;68.19
62011;BME280;47967;51.756;10.174;2023-05-20T21:30:08;100047.72;;;16.69;67.85
62011;BME280;47967;51.756;10.174;2023-05-20T21:34:11;100053.84;;;16.64;68.22
62011;BME280;47967;51.756;10.174;2023-05-20T21:38:13;100048.94;;;16.42;69.07
62011;BME280;47967;51.756;10.174;2023-05-20T21:42:17;100050.47;;;16.50;69.13
62011;BME280;47967;51.756;10.174;2023-05-20T21:46:20;100038.78;;;16.49;68.77
62011;BME280;47967;51.756;10.174;2023-05-20T21:50:23;100035.72;;;16.58;68.94
62011;BME280;47967;51.756;10.174;2023-05-20T21:54:25;100024.19;;;16.44;69.16
62011;BME280;47967;51.756;10.174;2023-05-20T21:58:29;100033.03;;;16.39;69.66
62011;BME280;47967;51.756;10.174;2023-05-20T22:02:32;100024.88;;;16.39;69.76
62011;BME280;47967;51.756;10.174;2023-05-20T22:06:34;100022.50;;;16.31;69.93
62011;BME280;47967;51.756;10.174;2023-05-20T22:10:37;100030.84;;;16.17;70.37
62011;BME280;47967;51.756;10.174;2023-05-20T22:14:41;100017.09;;;16.12;70.82
62011;BME280;47967;51.756;10.174;2023-05-20T22:18:44;100019.91;;;16.06;71.14
62011;BME280;47967;51.756;10.174;2023-05-20T22:22:48;100019.66;;;15.95;71.60
62011;BME280;47967;51.756;10.174;2023-05-20T22:26:50;100015.03;;;15.96;71.57
62011;BME280;47967;51.756;10.174;2023-05-20T22:30:54;100012.16;;;15.91;71.82
62011;BME280;47967;51.756;10.174;2023-05-20T22:34:57;100012.59;;;15.88;72.05
62011;BME280;47967;51.756;10.174;2023-05-20T22:38:59;99998.41;;;15.86;71.99
62011;BME280;47967;51.756;10.174;2023-05-20T22:43:03;99994.63;;;15.87;71.72
62011;BME280;47967;51.756;10.174;2023-05-20T22:47:07;99984.91;;;15.42;72.19
62011;BME280;47967;51.756;10.174;2023-05-20T22:51:10;99984.50;;;15.19;72.96
62011;BME280;47967;51.756;10.174;2023-05-20T22:55:14;99976.94;;;15.03;74.01
62011;BME280;47967;51.756;10.174;2023-05-20T22:59:18;99975.03;;;15.03;74.06
62011;BME280;47967;51.756;10.174;2023-05-20T23:03:22;99972.53;;;14.83;74.64
62011;BME280;47967;51.756;10.174;2023-05-20T23:07:25;99961.41;;;14.60;75.76
62011;BME280;47967;51.756;10.174;2023-05-20T23:11:28;99965.50;;;14.44;75.63
62011;BME280;47967;51.756;10.174;2023-05-20T23:15:30;99965.84;;;14.29;76.43
62011;BME280;47967;51.756;10.174;2023-05-20T23:19:34;99958.34;;;14.24;76.52
62011;BME280;47967;51.756;10.174;2023-05-20T23:23:37;99956.59;;;14.04;76.76
62011;BME280;47967;51.756;10.174;2023-05-20T23:27:40;99959.53;;;14.03;77.08
62011;BME280;47967;51.756;10.174;2023-05-20T23:31:42;99952.44;;;14.02;76.95
62011;BME280;47967;51.756;10.174;2023-05-20T23:35:46;99953.88;;;14.04;76.97
62011;BME280;47967;51.756;10.174;2023-05-20T23:39:48;99949.72;;;14.02;76.87
62011;BME280;47967;51.756;10.174;2023-05-20T23:43:51;99952.63;;;14.07;76.41
62011;BME280;47967;51.756;10.174;2023-05-20T23:47:54;99948.03;;;14.07;77.05
62011;BME280;47967;51.756;10.174;2023-05-20T23:51:58;99947.34;;;14.12;77.67
62011;BME280;47967;51.756;10.174;2023-05-20T23:56:00;99944.38;;;14.20;77.67
